Time;durP1;ratioP1;P1;durP2;ratioP2;P2;SDS_P1;SDS_P2;PMS_P1;PMS_P2;Temp;Humidity;BMP_temperature;BMP_pressure;BME280_temperature;BME280_humidity;BME280_pressure;Samples;Min_cycle;Max_cycle;Signal;HPM_P1;HPM_P2
2021/12/28 00:01:36;;;;;;;5.72;4.40;;;9.30;76.90;;;;;;5030200;28;20058;-45
2021/12/28 00:04:05;;;;;;;3.85;3.45;;;9.20;76.90;;;;;;5034256;28;20111;-44
2021/12/28 00:06:32;;;;;;;5.60;2.97;;;9.20;76.80;;;;;;5029105;28;20497;-46
2021/12/28 00:08:59;;;;;;;3.35;2.65;;;9.20;76.60;;;;;;5038223;28;20574;-45
2021/12/28 00:11:26;;;;;;;2.42;2.22;;;9.10;76.40;;;;;;5027073;28;20042;-43
2021/12/28 00:13:59;;;;;;;5.13;2.80;;;9.10;76.30;;;;;;5035834;28;20095;-45
2021/12/28 00:19:18;;;;;;;2.97;2.55;;;9.00;76.00;;;;;;5049284;28;20037;-44
2021/12/28 00:21:45;;;;;;;4.03;2.63;;;8.90;75.90;;;;;;5030500;28;20033;-43
2021/12/28 00:24:12;;;;;;;3.53;2.60;;;8.90;76.00;;;;;;5040027;28;20040;-43
2021/12/28 00:26:39;;;;;;;4.70;2.85;;;8.90;75.90;;;;;;5029418;28;20504;-45
2021/12/28 00:29:05;;;;;;;3.90;2.88;;;8.80;75.80;;;;;;5004617;28;20108;-44
2021/12/28 00:31:33;;;;;;;3.38;2.00;;;8.70;75.60;;;;;;5015323;28;20037;-44
2021/12/28 00:34:00;;;;;;;2.67;2.28;;;8.70;75.50;;;;;;5041077;28;20048;-45
2021/12/28 00:36:27;;;;;;;3.33;2.13;;;8.70;75.50;;;;;;5031070;28;20535;-43
2021/12/28 00:38:54;;;;;;;5.20;2.50;;;8.60;75.40;;;;;;5041441;28;20045;-45
2021/12/28 00:41:21;;;;;;;4.32;2.88;;;8.60;75.50;;;;;;5019799;28;20572;-44
2021/12/28 00:43:47;;;;;;;4.10;2.55;;;8.50;75.60;;;;;;5021520;28;20452;-44
2021/12/28 00:46:14;;;;;;;6.70;3.45;;;8.50;75.80;;;;;;5028239;28;20033;-43
2021/12/28 00:48:41;;;;;;;5.20;3.70;;;8.50;76.10;;;;;;5029549;28;20073;-44
2021/12/28 00:51:08;;;;;;;5.07;3.10;;;8.50;76.50;;;;;;5027111;28;20098;-43
2021/12/28 00:53:35;;;;;;;6.00;3.00;;;8.50;76.80;;;;;;5037951;28;20041;-45
2021/12/28 00:56:02;;;;;;;6.03;3.47;;;8.40;77.10;;;;;;5032912;28;20505;-44
2021/12/28 00:58:29;;;;;;;7.80;3.50;;;8.50;77.60;;;;;;5020632;28;20088;-43
2021/12/28 01:00:56;;;;;;;6.55;3.55;;;8.50;78.50;;;;;;5034499;28;20045;-43
2021/12/28 01:03:23;;;;;;;5.15;2.70;;;8.50;78.10;;;;;;5040359;28;20040;-43
2021/12/28 01:05:51;;;;;;;8.55;3.92;;;8.60;78.20;;;;;;5034676;28;20087;-42
2021/12/28 01:08:18;;;;;;;4.70;3.10;;;8.60;78.30;;;;;;5027063;28;20087;-44
2021/12/28 01:10:51;;;;;;;4.25;3.28;;;8.70;78.50;;;;;;5039587;28;20048;-43
2021/12/28 01:13:19;;;;;;;5.03;3.35;;;8.70;78.80;;;;;;5022302;28;20041;-44
2021/12/28 01:15:48;;;;;;;7.60;3.40;;;8.80;78.80;;;;;;5032836;28;20050;-42
2021/12/28 01:18:15;;;;;;;6.13;3.40;;;8.80;78.70;;;;;;5031494;28;20606;-45
2021/12/28 01:20:42;;;;;;;4.40;3.05;;;8.90;78.70;;;;;;5043871;28;20044;-42
2021/12/28 01:23:10;;;;;;;4.82;2.67;;;8.90;78.60;;;;;;5041365;28;20103;-43
2021/12/28 01:25:37;;;;;;;8.65;3.33;;;9.00;79.20;;;;;;5032804;28;20108;-44
2021/12/28 01:28:05;;;;;;;5.93;3.35;;;9.00;78.50;;;;;;5032099;28;20068;-43
2021/12/28 01:30:35;;;;;;;4.60;3.38;;;9.10;78.50;;;;;;5044461;28;20035;-44
2021/12/28 01:33:02;;;;;;;7.00;3.38;;;9.10;78.50;;;;;;5051304;28;20037;-43
2021/12/28 01:35:30;;;;;;;5.93;3.45;;;9.10;78.40;;;;;;5042321;28;20052;-44
2021/12/28 01:38:00;;;;;;;4.85;3.08;;;9.10;78.50;;;;;;5036965;28;20473;-44
2021/12/28 01:40:31;;;;;;;9.15;3.97;;;9.20;78.50;;;;;;5043066;28;20048;-44
2021/12/28 01:43:07;;;;;;;4.43;3.13;;;9.20;78.50;;;;;;5052380;28;20546;-43
2021/12/28 01:45:42;;;;;;;7.20;3.88;;;9.30;78.50;;;;;;5031126;28;20037;-43
2021/12/28 01:48:12;;;;;;;5.63;3.90;;;9.30;78.50;;;;;;5041106;28;20116;-45
2021/12/28 01:50:39;;;;;;;7.65;3.63;;;9.30;78.40;;;;;;5047869;28;20096;-43
2021/12/28 01:53:08;;;;;;;11.75;3.45;;;9.30;78.40;;;;;;5038267;28;20050;-46
2021/12/28 01:55:38;;;;;;;4.95;2.78;;;9.40;78.40;;;;;;5037913;28;20096;-43
2021/12/28 01:58:06;;;;;;;7.00;3.10;;;9.40;78.30;;;;;;5044107;28;20446;-43
2021/12/28 02:00:34;;;;;;;9.73;2.55;;;9.40;78.20;;;;;;5046418;28;20614;-43
2021/12/28 02:03:09;;;;;;;7.57;3.13;;;9.40;78.20;;;;;;5041752;28;20574;-43
2021/12/28 02:05:36;;;;;;;9.85;3.72;;;9.50;78.40;;;;;;5029708;28;20041;-43
2021/12/28 02:08:04;;;;;;;4.32;2.50;;;9.50;78.30;;;;;;5040291;28;20120;-43
2021/12/28 02:10:32;;;;;;;8.20;2.83;;;9.50;78.50;;;;;;5033463;28;20423;-43
2021/12/28 02:12:59;;;;;;;6.63;2.28;;;9.50;78.50;;;;;;5044821;28;20048;-42
2021/12/28 02:15:26;;;;;;;6.30;2.83;;;9.60;78.70;;;;;;5033759;28;20050;-42
2021/12/28 02:17:53;;;;;;;7.80;3.00;;;9.60;78.80;;;;;;5040091;28;20626;-43
2021/12/28 02:20:21;;;;;;;6.57;2.67;;;9.60;79.00;;;;;;5051717;28;20107;-43
2021/12/28 02:22:48;;;;;;;10.20;2.72;;;9.70;79.20;;;;;;5050872;28;20052;-43
2021/12/28 02:25:17;;;;;;;7.88;2.83;;;9.70;79.30;;;;;;5028577;28;20032;-43
2021/12/28 02:27:46;;;;;;;7.43;2.83;;;9.80;79.50;;;;;;5038716;28;20119;-43
2021/12/28 02:30:18;;;;;;;5.78;2.58;;;9.80;79.50;;;;;;5052595;28;20067;-43
2021/12/28 02:32:48;;;;;;;8.65;3.35;;;9.70;79.50;;;;;;5025203;28;20416;-43
2021/12/28 02:35:18;;;;;;;7.32;2.80;;;9.90;79.40;;;;;;5031247;28;20091;-43
2021/12/28 02:37:46;;;;;;;8.32;2.92;;;9.90;79.30;;;;;;5047230;28;20107;-44
2021/12/28 02:40:20;;;;;;;4.90;2.30;;;10.00;79.30;;;;;;5052039;28;20080;-45
2021/12/28 02:42:52;;;;;;;7.53;2.50;;;10.00;79.20;;;;;;5037939;28;20069;-43
2021/12/28 02:45:32;;;;;;;8.50;2.50;;;10.10;79.20;;;;;;5042922;28;20049;-43
2021/12/28 02:48:00;;;;;;;7.80;2.42;;;10.10;79.30;;;;;;5048940;28;20045;-43
2021/12/28 02:50:30;;;;;;;9.50;2.88;;;10.10;79.00;;;;;;5042180;28;20099;-44
2021/12/28 02:52:58;;;;;;;7.28;2.88;;;10.20;79.10;;;;;;5035905;28;20103;-42
2021/12/28 02:55:28;;;;;;;6.93;2.38;;;10.20;79.00;;;;;;5042745;28;20040;-43
2021/12/28 02:58:07;;;;;;;8.00;2.90;;;10.30;78.90;;;;;;5051004;28;20492;-42
2021/12/28 03:00:40;;;;;;;6.13;2.67;;;10.30;79.00;;;;;;5034834;28;20049;-43
2021/12/28 03:03:22;;;;;;;9.77;2.60;;;10.30;78.60;;;;;;5041330;28;20072;-43
2021/12/28 03:05:54;;;;;;;6.13;2.50;;;10.30;78.80;;;;;;5033903;28;20046;-43
2021/12/28 03:08:24;;;;;;;10.60;2.78;;;10.40;78.50;;;;;;5028932;28;20096;-45
2021/12/28 03:10:51;;;;;;;8.52;2.63;;;10.40;78.50;;;;;;5024493;28;20516;-43
2021/12/28 03:13:26;;;;;;;7.10;2.38;;;10.40;78.50;;;;;;5038363;28;20044;-43
2021/12/28 03:15:53;;;;;;;8.73;2.63;;;10.40;78.50;;;;;;5032889;28;20045;-44
2021/12/28 03:18:21;;;;;;;9.07;2.90;;;10.40;78.50;;;;;;5010288;28;20046;-44
2021/12/28 03:20:48;;;;;;;7.07;2.38;;;10.40;78.40;;;;;;5027787;28;20099;-43
2021/12/28 03:23:22;;;;;;;7.55;2.25;;;10.40;78.30;;;;;;5038630;28;20038;-46
2021/12/28 03:25:50;;;;;;;6.20;2.60;;;10.40;78.30;;;;;;5030309;28;20045;-43
2021/12/28 03:28:28;;;;;;;6.82;2.38;;;10.40;78.30;;;;;;5026055;28;20037;-44
2021/12/28 03:31:00;;;;;;;6.53;2.42;;;10.40;78.40;;;;;;5032037;28;20528;-43
2021/12/28 03:33:28;;;;;;;;;;;10.40;78.00;;;;;;5042696;28;20507;-46
2021/12/28 03:35:55;;;;;;;7.13;2.03;;;10.40;78.30;;;;;;5049300;28;19924;-44
2021/12/28 03:38:23;;;;;;;8.70;3.00;;;10.40;77.50;;;;;;5033041;28;20057;-43
2021/12/28 03:40:51;;;;;;;7.93;2.13;;;10.40;77.40;;;;;;5047735;22;20180;-46
2021/12/28 03:43:18;;;;;;;9.40;1.90;;;10.30;77.40;;;;;;5030258;28;20037;-48
2021/12/28 03:45:47;;;;;;;9.30;3.33;;;10.30;77.50;;;;;;5030956;28;20037;-49
2021/12/28 03:48:14;;;;;;;11.55;3.38;;;10.30;77.60;;;;;;5016264;28;20116;-49
2021/12/28 03:50:41;;;;;;;10.00;2.85;;;10.20;77.50;;;;;;5023077;28;20551;-47
2021/12/28 03:53:09;;;;;;;8.88;2.53;;;10.20;77.50;;;;;;5011184;28;20066;-45
2021/12/28 03:55:36;;;;;;;8.32;2.50;;;10.20;77.60;;;;;;5011403;28;20046;-45
2021/12/28 03:58:04;;;;;;;7.05;2.70;;;10.10;77.60;;;;;;5009417;28;20051;-46
2021/12/28 04:00:34;;;;;;;9.60;2.42;;;10.10;77.70;;;;;;5023142;28;20046;-48
2021/12/28 04:03:01;;;;;;;16.52;3.40;;;10.10;77.80;;;;;;5028643;28;20415;-47
2021/12/28 04:05:28;;;;;;;8.25;2.88;;;10.10;77.90;;;;;;5016395;28;20038;-47
2021/12/28 04:07:55;;;;;;;9.23;3.25;;;10.10;78.10;;;;;;5006384;28;20072;-48
2021/12/28 04:10:30;;;;;;;8.82;2.75;;;10.00;78.20;;;;;;5015236;28;20045;-47
2021/12/28 04:12:57;;;;;;;8.27;2.97;;;10.00;78.40;;;;;;5019782;28;20037;-45
2021/12/28 04:15:24;;;;;;;13.88;3.22;;;10.00;78.50;;;;;;5013099;28;20444;-46
2021/12/28 04:17:51;;;;;;;9.70;2.70;;;10.10;78.70;;;;;;5022317;28;20052;-46
2021/12/28 04:20:21;;;;;;;14.18;3.28;;;10.10;78.70;;;;;;5022773;28;20041;-46
2021/12/28 04:22:49;;;;;;;10.20;2.35;;;10.10;78.90;;;;;;5027303;28;20443;-46
2021/12/28 04:25:17;;;;;;;11.48;3.40;;;10.10;78.90;;;;;;5007336;28;20038;-45
2021/12/28 04:27:47;;;;;;;9.43;2.13;;;10.10;78.90;;;;;;5021330;28;20041;-48
2021/12/28 04:30:15;;;;;;;10.80;3.50;;;10.10;79.00;;;;;;5013828;28;20041;-46
2021/12/28 04:32:43;;;;;;;14.30;3.83;;;10.20;79.20;;;;;;5029301;28;20114;-46
2021/12/28 04:35:12;;;;;;;10.45;3.13;;;10.20;79.30;;;;;;5013868;28;20038;-47
2021/12/28 04:37:40;;;;;;;11.15;3.20;;;10.20;79.30;;;;;;5019536;28;20126;-47
2021/12/28 04:40:09;;;;;;;11.00;2.95;;;10.20;79.20;;;;;;5029498;28;20404;-46
2021/12/28 04:42:36;;;;;;;12.13;4.05;;;10.30;79.30;;;;;;5028949;28;20416;-45
2021/12/28 04:45:06;;;;;;;10.30;3.70;;;10.30;79.30;;;;;;5006400;28;20046;-47
2021/12/28 04:47:34;;;;;;;12.32;3.88;;;10.30;79.40;;;;;;5017143;28;20048;-48
2021/12/28 04:50:01;;;;;;;14.85;4.13;;;10.40;79.50;;;;;;5028259;28;20049;-47
2021/12/28 04:52:30;;;;;;;9.60;3.50;;;10.40;79.50;;;;;;5015130;28;20033;-45
2021/12/28 04:54:57;;;;;;;8.93;3.47;;;10.40;79.50;;;;;;5019866;28;20559;-48
2021/12/28 04:57:24;;;;;;;13.15;3.22;;;10.50;79.60;;;;;;5028548;28;20118;-46
2021/12/28 04:59:50;;;;;;;9.10;3.20;;;10.50;79.60;;;;;;5015188;28;20584;-46
2021/12/28 05:02:17;;;;;;;14.48;3.83;;;10.50;79.60;;;;;;5009442;28;20042;-49
2021/12/28 05:04:44;;;;;;;9.30;3.25;;;10.50;79.60;;;;;;5016991;28;20042;-46
2021/12/28 05:07:11;;;;;;;14.75;4.43;;;10.60;79.60;;;;;;5025765;28;20045;-47
2021/12/28 05:09:37;;;;;;;11.52;3.85;;;10.60;79.50;;;;;;5009561;28;20034;-45
2021/12/28 05:12:05;;;;;;;8.63;3.20;;;10.60;79.50;;;;;;5009079;28;20409;-50
2021/12/28 05:14:32;;;;;;;9.65;2.92;;;10.70;79.60;;;;;;5019785;28;20087;-49
2021/12/28 05:16:59;;;;;;;9.55;2.95;;;10.70;79.60;;;;;;5018951;28;20077;-49
2021/12/28 05:19:26;;;;;;;11.85;3.03;;;10.70;79.60;;;;;;5009054;28;20069;-49
2021/12/28 05:21:53;;;;;;;9.10;3.25;;;10.70;79.60;;;;;;5002616;28;20104;-50
2021/12/28 05:24:19;;;;;;;11.00;3.60;;;10.80;79.60;;;;;;5018235;28;20401;-48
2021/12/28 05:26:46;;;;;;;9.57;3.17;;;10.80;79.50;;;;;;5012612;28;20548;-50
2021/12/28 05:29:13;;;;;;;7.18;2.65;;;10.80;79.50;;;;;;5008676;28;20084;-48
2021/12/28 05:31:40;;;;;;;8.70;2.35;;;10.80;79.50;;;;;;5018746;28;20038;-50
2021/12/28 05:34:08;;;;;;;11.18;2.72;;;10.90;79.60;;;;;;5020043;28;20042;-50
2021/12/28 05:36:36;;;;;;;13.07;3.03;;;10.90;79.60;;;;;;5029017;28;20103;-50
2021/12/28 05:39:04;;;;;;;9.70;2.20;;;10.90;79.60;;;;;;5000510;28;20101;-47
2021/12/28 05:41:31;;;;;;;9.48;3.53;;;10.90;79.40;;;;;;5011928;28;20045;-50
2021/12/28 05:43:58;;;;;;;11.15;2.58;;;11.00;79.40;;;;;;5017857;28;20058;-48
2021/12/28 05:46:25;;;;;;;7.82;2.55;;;11.00;79.10;;;;;;5010744;28;20041;-46
2021/12/28 05:48:52;;;;;;;8.32;2.80;;;11.00;78.90;;;;;;5016325;28;20042;-49
2021/12/28 05:51:18;;;;;;;9.90;2.38;;;11.00;78.80;;;;;;5014712;28;20041;-47
2021/12/28 05:53:45;;;;;;;8.10;3.03;;;11.00;78.80;;;;;;5019674;28;20037;-49
2021/12/28 05:56:14;;;;;;;4.88;2.20;;;11.00;78.70;;;;;;5004990;28;20111;-49
2021/12/28 05:58:41;;;;;;;8.30;2.50;;;11.00;78.60;;;;;;5012931;28;20461;-51
2021/12/28 06:01:09;;;;;;;7.47;2.53;;;11.00;78.60;;;;;;5013696;28;20042;-49
2021/12/28 06:03:36;;;;;;;5.72;2.03;;;11.00;78.60;;;;;;5025063;28;20050;-48
2021/12/28 06:06:03;;;;;;;9.75;3.08;;;11.00;78.70;;;;;;5013973;28;20125;-50
2021/12/28 06:08:30;;;;;;;7.38;2.50;;;11.00;78.70;;;;;;5006645;28;20108;-50
2021/12/28 06:11:03;;;;;;;7.30;2.08;;;11.00;78.70;;;;;;5020090;28;20041;-50
2021/12/28 06:13:30;;;;;;;6.13;2.45;;;11.00;78.80;;;;;;5013096;28;20073;-46
2021/12/28 06:15:57;;;;;;;5.43;2.00;;;11.00;78.80;;;;;;5018080;28;20038;-49
2021/12/28 06:18:24;;;;;;;12.43;2.55;;;11.00;78.80;;;;;;5010108;28;20038;-51
2021/12/28 06:20:50;;;;;;;6.43;2.53;;;11.00;78.80;;;;;;5022597;28;20081;-47
2021/12/28 06:23:18;;;;;;;7.43;1.75;;;11.00;78.80;;;;;;5028244;28;20034;-49
2021/12/28 06:25:44;;;;;;;5.97;2.08;;;11.00;78.80;;;;;;5013216;28;20413;-50
2021/12/28 06:28:11;;;;;;;9.23;2.33;;;11.00;78.80;;;;;;5025990;28;20092;-47
2021/12/28 06:30:38;;;;;;;7.15;1.90;;;11.00;78.90;;;;;;5027010;28;20072;-50
2021/12/28 06:33:05;;;;;;;10.13;2.45;;;11.00;79.00;;;;;;5021739;28;20042;-49
2021/12/28 06:35:32;;;;;;;5.13;1.95;;;11.00;79.00;;;;;;5017755;28;20817;-49
2021/12/28 06:37:59;;;;;;;7.20;1.98;;;11.00;79.10;;;;;;5017027;28;20398;-45
2021/12/28 06:40:29;;;;;;;5.85;1.65;;;11.00;79.10;;;;;;5022688;28;20064;-49
2021/12/28 06:42:56;;;;;;;4.57;1.77;;;11.10;79.20;;;;;;5014245;28;20111;-45
2021/12/28 06:45:23;;;;;;;5.13;1.60;;;11.10;79.20;;;;;;5018437;28;20099;-49
2021/12/28 06:47:50;;;;;;;4.68;1.67;;;11.10;79.20;;;;;;5022991;28;20033;-48
2021/12/28 06:50:17;;;;;;;4.20;1.60;;;11.10;79.30;;;;;;5012830;28;20092;-47
2021/12/28 06:52:44;;;;;;;3.65;1.65;;;11.10;79.30;;;;;;5007580;28;20108;-49
2021/12/28 06:55:14;;;;;;;7.95;1.70;;;11.10;79.40;;;;;;5013197;28;20068;-50
2021/12/28 06:57:40;;;;;;;6.88;1.25;;;11.10;79.50;;;;;;5018608;28;20607;-49
2021/12/28 07:00:10;;;;;;;5.60;1.40;;;11.20;79.50;;;;;;5007704;28;20603;-45
2021/12/28 07:02:41;;;;;;;8.93;1.70;;;11.20;79.40;;;;;;5020875;28;20050;-46
2021/12/28 07:05:08;;;;;;;5.40;1.48;;;11.20;79.10;;;;;;5022008;28;20394;-45
2021/12/28 07:07:36;;;;;;;5.47;1.38;;;11.20;78.80;;;;;;5008866;28;20045;-45
2021/12/28 07:10:04;;;;;;;3.65;1.55;;;11.20;78.40;;;;;;5011078;28;20092;-46
2021/12/28 07:12:32;;;;;;;2.15;0.70;;;11.10;77.90;;;;;;5028043;28;20038;-47
2021/12/28 07:15:01;;;;;;;2.40;1.02;;;11.10;77.50;;;;;;5008386;28;20034;-45
2021/12/28 07:17:28;;;;;;;2.58;0.90;;;11.00;77.10;;;;;;5013627;28;20494;-45
2021/12/28 07:19:55;;;;;;;5.78;1.40;;;11.00;76.90;;;;;;5010627;28;20072;-48
2021/12/28 07:22:21;;;;;;;4.25;1.17;;;10.90;76.90;;;;;;5018699;28;20567;-46
2021/12/28 07:24:48;;;;;;;4.22;1.50;;;10.80;77.20;;;;;;5001902;28;20103;-46
2021/12/28 07:27:15;;;;;;;5.13;1.48;;;10.80;77.60;;;;;;5015342;28;20386;-47
2021/12/28 07:29:42;;;;;;;4.40;1.50;;;10.70;78.00;;;;;;4998237;28;20034;-45
2021/12/28 07:32:11;;;;;;;5.40;1.48;;;10.70;78.40;;;;;;4988058;28;20072;-50
2021/12/28 07:34:38;;;;;;;3.42;1.80;;;10.70;78.80;;;;;;5003470;28;20416;-49
2021/12/28 07:37:04;;;;;;;7.57;1.60;;;10.70;79.10;;;;;;5023330;28;20455;-50
2021/12/28 07:39:31;;;;;;;4.35;1.50;;;10.70;79.40;;;;;;5032068;28;20520;-50
2021/12/28 07:42:00;;;;;;;4.20;0.95;;;10.70;79.60;;;;;;5017249;28;20042;-50
2021/12/28 07:44:27;;;;;;;2.60;1.30;;;10.70;79.90;;;;;;5010454;28;20096;-49
2021/12/28 07:46:54;;;;;;;3.00;1.33;;;10.80;80.20;;;;;;5011155;28;20038;-50
2021/12/28 07:49:21;;;;;;;4.13;1.63;;;10.80;80.90;;;;;;5009826;28;20038;-49
2021/12/28 07:51:49;;;;;;;4.25;1.33;;;10.80;80.40;;;;;;5010978;28;20481;-50
2021/12/28 07:54:16;;;;;;;3.85;1.23;;;10.90;80.50;;;;;;5013255;28;20497;-50
2021/12/28 07:56:43;;;;;;;3.13;1.30;;;10.90;80.50;;;;;;5014840;28;20057;-48
2021/12/28 07:59:10;;;;;;;2.35;0.90;;;10.90;80.40;;;;;;5007160;28;20110;-47
2021/12/28 08:01:36;;;;;;;5.20;1.23;;;11.00;80.50;;;;;;4999245;28;20099;-46
2021/12/28 08:04:04;;;;;;;4.75;1.55;;;11.00;80.40;;;;;;4990043;28;20062;-47
2021/12/28 08:06:32;;;;;;;4.25;1.20;;;11.10;80.40;;;;;;4976719;28;20085;-47
2021/12/28 08:08:58;;;;;;;3.03;1.40;;;11.10;80.20;;;;;;4999565;28;20033;-47
2021/12/28 08:11:27;;;;;;;37.17;21.77;;;11.10;80.20;;;;;;4997240;28;20054;-45
2021/12/28 08:13:54;;;;;;;14.45;8.10;;;11.20;80.20;;;;;;5008379;28;20092;-47
2021/12/28 08:16:21;;;;;;;6.20;2.72;;;11.20;80.10;;;;;;4997259;28;20734;-45
2021/12/28 08:18:48;;;;;;;3.50;1.35;;;11.20;80.00;;;;;;5004756;28;20096;-48
2021/12/28 08:21:36;;;;;;;1.92;1.40;;;11.30;80.10;;;;;;5003081;28;20046;-46
2021/12/28 08:24:03;;;;;;;4.35;1.13;;;11.30;79.90;;;;;;5011286;28;20618;-47
2021/12/28 08:26:30;;;;;;;2.85;0.95;;;11.30;80.00;;;;;;4995157;28;20061;-47
2021/12/28 08:28:57;;;;;;;2.95;1.20;;;11.30;79.90;;;;;;4999845;28;20069;-49
2021/12/28 08:31:25;;;;;;;3.00;1.00;;;11.30;79.90;;;;;;4998624;28;20041;-48
2021/12/28 08:33:55;;;;;;;2.28;1.00;;;11.40;79.90;;;;;;5012102;28;20040;-47
2021/12/28 08:36:22;;;;;;;2.15;1.15;;;11.50;80.00;;;;;;4993475;28;20046;-47
2021/12/28 08:38:49;;;;;;;3.30;1.30;;;11.50;80.00;;;;;;5006089;28;20050;-48
2021/12/28 08:41:17;;;;;;;3.10;1.88;;;11.50;80.00;;;;;;4995882;28;20058;-48
2021/12/28 08:43:46;;;;;;;3.65;1.35;;;11.50;79.90;;;;;;5018639;28;20045;-47
2021/12/28 08:46:13;;;;;;;2.25;1.10;;;11.60;79.90;;;;;;4990296;28;20670;-45
2021/12/28 08:48:41;;;;;;;1.10;0.85;;;11.60;79.90;;;;;;4997953;28;20042;-46
2021/12/28 08:51:08;;;;;;;2.00;1.33;;;11.60;79.90;;;;;;4994217;28;20104;-47
2021/12/28 08:53:35;;;;;;;3.33;1.45;;;11.70;80.60;;;;;;5009473;28;20045;-47
2021/12/28 08:56:02;;;;;;;1.77;0.95;;;11.60;79.90;;;;;;4994394;28;20525;-45
2021/12/28 08:58:29;;;;;;;1.65;0.90;;;11.70;79.90;;;;;;5005805;28;20049;-48
2021/12/28 09:00:56;;;;;;;2.70;1.00;;;11.70;80.00;;;;;;4995020;28;20107;-47
2021/12/28 09:03:23;;;;;;;3.67;1.23;;;11.70;79.90;;;;;;5005075;28;20050;-47
2021/12/28 09:05:50;;;;;;;1.23;0.98;;;11.80;80.00;;;;;;4995566;28;20523;-45
2021/12/28 09:08:18;;;;;;;2.10;0.75;;;11.80;80.00;;;;;;5007281;28;20069;-46
2021/12/28 09:10:46;;;;;;;5.20;1.20;;;11.80;80.00;;;;;;4995512;28;20448;-47
2021/12/28 09:13:14;;;;;;;1.20;0.82;;;11.90;80.00;;;;;;4990777;28;20034;-46
2021/12/28 09:15:42;;;;;;;2.90;1.10;;;11.90;80.00;;;;;;4992725;28;20042;-47
2021/12/28 09:18:11;;;;;;;4.32;1.30;;;11.90;79.90;;;;;;5005314;28;20767;-45
2021/12/28 09:20:38;;;;;;;2.42;1.00;;;12.00;79.90;;;;;;4994815;28;20046;-47
2021/12/28 09:23:10;;;;;;;3.38;1.20;;;12.00;79.80;;;;;;5000123;28;20224;-47
2021/12/28 09:25:38;;;;;;;2.67;1.30;;;12.10;79.80;;;;;;4992390;28;20885;-45
2021/12/28 09:28:06;;;;;;;1.88;1.20;;;12.10;79.60;;;;;;5009039;28;20091;-48
2021/12/28 09:30:34;;;;;;;3.03;0.90;;;12.10;79.60;;;;;;4995174;28;20129;-46
2021/12/28 09:33:01;;;;;;;2.22;0.77;;;12.10;79.50;;;;;;5001840;28;20441;-48
2021/12/28 09:35:28;;;;;;;0.90;0.80;;;12.20;79.70;;;;;;4995562;28;20042;-47
2021/12/28 09:37:56;;;;;;;2.10;0.55;;;12.20;79.70;;;;;;5011358;28;20070;-46
2021/12/28 09:40:29;;;;;;;1.13;0.57;;;12.20;79.70;;;;;;5005159;28;20497;-46
2021/12/28 09:42:56;;;;;;;1.55;0.57;;;12.30;79.80;;;;;;5004969;28;20073;-44
2021/12/28 09:45:27;;;;;;;0.80;0.40;;;12.30;79.80;;;;;;4992782;28;20066;-47
2021/12/28 09:47:55;;;;;;;0.95;0.50;;;12.30;79.90;;;;;;5015120;28;20120;-45
2021/12/28 09:50:22;;;;;;;0.77;0.50;;;12.40;79.90;;;;;;4998981;28;20103;-48
2021/12/28 09:52:51;;;;;;;0.85;0.60;;;12.40;79.90;;;;;;4999048;28;20042;-47
2021/12/28 09:55:23;;;;;;;0.60;0.60;;;12.50;80.00;;;;;;4990825;28;20567;-48
2021/12/28 09:57:51;;;;;;;0.55;0.45;;;12.50;80.10;;;;;;5007091;28;20034;-46
2021/12/28 10:00:20;;;;;;;1.48;0.22;;;12.50;80.20;;;;;;4990862;28;20061;-48
2021/12/28 10:03:06;;;;;;;1.10;0.40;;;12.60;80.30;;;;;;5007395;28;20116;-47
2021/12/28 10:05:34;;;;;;;1.33;0.20;;;12.60;80.20;;;;;;4998996;28;20042;-50
2021/12/28 10:08:05;;;;;;;0.75;0.50;;;12.70;80.20;;;;;;5010978;28;20738;-46
2021/12/28 10:10:38;;;;;;;1.27;0.40;;;12.80;80.10;;;;;;4980539;28;20112;-46
2021/12/28 10:13:16;;;;;;;0.40;0.30;;;12.80;80.00;;;;;;5010316;28;20096;-49
2021/12/28 10:15:45;;;;;;;0.20;0.20;;;12.80;79.90;;;;;;4999154;28;20037;-46
2021/12/28 10:18:13;;;;;;;0.30;0.20;;;12.90;80.00;;;;;;5007858;28;20517;-46
2021/12/28 10:20:44;;;;;;;0.30;0.20;;;12.90;80.00;;;;;;4993001;28;20524;-50
2021/12/28 10:23:14;;;;;;;0.55;0.20;;;12.90;80.00;;;;;;5008292;28;20099;-46
2021/12/28 10:25:43;;;;;;;0.32;0.30;;;13.00;80.10;;;;;;4996346;28;20066;-48
2021/12/28 10:28:12;;;;;;;0.50;0.25;;;13.00;80.00;;;;;;5009641;28;20052;-47
2021/12/28 10:30:41;;;;;;;0.35;0.35;;;13.10;79.90;;;;;;4996794;28;20038;-49
2021/12/28 10:33:17;;;;;;;0.77;0.50;;;13.20;79.80;;;;;;5010050;28;20040;-47
2021/12/28 10:35:49;;;;;;;1.50;0.20;;;13.20;80.30;;;;;;4997561;28;20107;-50
2021/12/28 10:38:18;;;;;;;;;;;13.30;79.50;;;;;;5008410;28;20046;-45
2021/12/28 10:40:49;;;;;;;0.60;0.20;;;13.30;79.60;;;;;;4998470;28;19927;-46
2021/12/28 10:43:25;;;;;;;0.25;0.25;;;13.30;79.00;;;;;;5009739;28;20038;-47
2021/12/28 10:46:00;;;;;;;0.25;0.25;;;13.40;79.00;;;;;;4997994;28;20108;-47
2021/12/28 10:48:33;;;;;;;0.47;0.25;;;13.40;79.20;;;;;;5005220;28;20040;-46
2021/12/28 10:51:02;;;;;;;;;;;13.40;79.20;;;;;;4996926;28;20418;-46
2021/12/28 10:53:38;;;;;;;0.30;0.30;;;13.40;79.50;;;;;;5009178;28;19976;-47
2021/12/28 10:56:09;;;;;;;0.20;0.17;;;13.50;79.20;;;;;;4994433;28;20096;-48
2021/12/28 10:58:41;;;;;;;0.60;0.47;;;13.50;79.30;;;;;;5008052;28;20068;-46
2021/12/28 11:01:21;;;;;;;0.73;0.38;;;13.50;79.30;;;;;;5003013;28;20050;-46
2021/12/28 11:03:54;;;;;;;0.75;0.20;;;13.50;79.20;;;;;;5014799;28;20811;-45
2021/12/28 11:06:27;;;;;;;2.13;0.80;;;13.50;79.10;;;;;;4999000;28;20425;-46
2021/12/28 11:08:57;;;;;;;0.35;0.30;;;13.60;79.00;;;;;;5006765;28;20061;-48
2021/12/28 11:11:27;;;;;;;1.95;0.55;;;13.60;78.90;;;;;;5001276;28;20045;-47
2021/12/28 11:14:00;;;;;;;1.13;0.40;;;13.60;78.80;;;;;;4992843;28;20069;-47
2021/12/28 11:16:29;;;;;;;1.48;0.40;;;13.60;78.80;;;;;;4998221;28;20123;-47
2021/12/28 11:18:59;;;;;;;1.15;0.30;;;13.60;78.80;;;;;;4998579;28;20118;-49
2021/12/28 11:21:34;;;;;;;0.20;0.20;;;13.70;78.70;;;;;;5000277;28;20056;-46
2021/12/28 11:24:13;;;;;;;0.60;0.25;;;13.70;78.70;;;;;;5002916;28;20108;-48
2021/12/28 11:26:48;;;;;;;0.47;0.40;;;13.70;78.70;;;;;;4971100;28;20493;-48
2021/12/28 11:29:20;;;;;;;0.20;0.17;;;13.70;78.70;;;;;;5008916;28;20046;-46
2021/12/28 11:31:55;;;;;;;0.90;0.30;;;13.60;78.60;;;;;;5002682;28;20490;-46
2021/12/28 11:34:34;;;;;;;0.30;0.28;;;13.60;78.80;;;;;;4997114;28;20046;-46
2021/12/28 11:37:14;;;;;;;0.57;0.40;;;13.60;78.90;;;;;;5002129;28;20046;-46
2021/12/28 11:39:59;;;;;;;0.40;0.40;;;13.70;79.00;;;;;;5010109;28;20042;-50
2021/12/28 11:42:27;;;;;;;1.02;0.40;;;13.60;79.10;;;;;;5009469;28;20040;-48
2021/12/28 11:44:53;;;;;;;0.40;0.40;;;13.60;79.00;;;;;;4996701;28;20069;-47
2021/12/28 11:47:22;;;;;;;0.82;0.35;;;13.60;79.20;;;;;;5003364;28;20042;-46
2021/12/28 11:49:50;;;;;;;0.35;0.30;;;13.60;79.30;;;;;;4999802;28;20730;-45
2021/12/28 11:52:19;;;;;;;1.10;0.57;;;13.60;79.30;;;;;;5008088;28;20112;-47
2021/12/28 11:54:49;;;;;;;0.95;0.68;;;13.60;79.30;;;;;;4999238;28;20042;-49
2021/12/28 11:57:17;;;;;;;1.63;0.50;;;13.60;79.30;;;;;;4999296;28;20084;-48
2021/12/28 12:00:06;;;;;;;1.92;1.13;;;13.60;79.20;;;;;;4992605;28;20096;-48
2021/12/28 12:02:45;;;;;;;3.15;1.77;;;13.60;79.10;;;;;;5006525;28;20042;-47
2021/12/28 12:05:13;;;;;;;5.63;1.27;;;13.50;78.70;;;;;;4999127;28;20034;-46
2021/12/28 12:07:40;;;;;;;6.60;1.80;;;13.50;78.30;;;;;;5005417;28;20041;-45
2021/12/28 12:10:29;;;;;;;6.88;1.70;;;13.50;78.20;;;;;;4997357;28;20046;-47
2021/12/28 12:13:00;;;;;;;8.18;1.92;;;13.50;77.70;;;;;;5000786;28;20493;-47
2021/12/28 12:15:35;;;;;;;7.22;2.28;;;13.50;77.10;;;;;;4998241;28;20042;-46
2021/12/28 12:18:02;;;;;;;9.65;2.35;;;13.50;76.40;;;;;;5012189;28;20045;-46
2021/12/28 12:20:33;;;;;;;12.15;2.60;;;13.40;76.20;;;;;;4996998;28;20046;-48
2021/12/28 12:23:20;;;;;;;17.58;3.88;;;13.50;75.90;;;;;;5004534;28;20828;-46
2021/12/28 12:25:59;;;;;;;8.55;3.20;;;13.40;75.00;;;;;;4995586;28;20053;-47
2021/12/28 12:28:37;;;;;;;11.43;3.53;;;13.50;75.00;;;;;;5011053;28;20477;-46
2021/12/28 12:31:07;;;;;;;18.77;3.15;;;13.50;74.60;;;;;;4994957;28;20104;-47
2021/12/28 12:33:39;;;;;;;14.48;2.88;;;13.50;74.90;;;;;;5006694;28;20548;-47
2021/12/28 12:36:08;;;;;;;12.40;2.90;;;13.40;74.20;;;;;;4996679;28;20038;-46
2021/12/28 12:38:37;;;;;;;9.43;3.00;;;13.40;74.10;;;;;;4991347;28;20050;-50
2021/12/28 12:41:06;;;;;;;18.17;3.60;;;13.50;73.80;;;;;;4994159;28;20084;-48
2021/12/28 12:43:35;;;;;;;12.10;3.50;;;13.40;73.10;;;;;;5010889;28;20037;-48
2021/12/28 12:46:09;;;;;;;11.15;2.97;;;13.40;72.90;;;;;;4995162;28;20100;-50
2021/12/28 12:48:36;;;;;;;14.65;3.80;;;13.40;72.50;;;;;;5005731;28;20068;-46
2021/12/28 12:51:24;;;;;;;16.58;3.60;;;13.40;72.90;;;;;;4996803;28;20065;-48
2021/12/28 12:54:00;;;;;;;11.57;3.47;;;13.50;71.70;;;;;;5009479;28;20033;-47
2021/12/28 12:56:43;;;;;;;13.75;3.50;;;13.50;72.50;;;;;;4995581;28;20191;-47
2021/12/28 12:59:19;;;;;;;11.85;4.43;;;13.50;72.20;;;;;;4996764;28;20108;-47
2021/12/28 13:01:46;;;;;;;12.88;3.40;;;13.40;71.50;;;;;;5004229;28;20056;-50